Time;durP1;ratioP1;P1;durP2;ratioP2;P2;SDS_P1;SDS_P2;PMS_P1;PMS_P2;Temp;Humidity;BMP_temperature;BMP_pressure;BME280_temperature;BME280_humidity;BME280_pressure;Samples;Min_cycle;Max_cycle;Signal;HPM_P1;HPM_P2
2022/01/03 00:03:39;;;;;;;;;;;;;;;21.70;35.81;95744.31;10445423;28;1736;-50
2022/01/03 00:08:41;;;;;;;;;;;;;;;21.68;36.27;95744.56;10435380;28;1914;-49
2022/01/03 00:13:42;;;;;;;;;;;;;;;21.69;36.06;95735.59;10448694;28;1801;-50
2022/01/03 00:18:42;;;;;;;;;;;;;;;21.67;36.26;95729.03;10439213;28;1847;-51
2022/01/03 00:23:50;;;;;;;;;;;;;;;21.67;35.90;95719.25;10447108;28;1876;-50
2022/01/03 00:28:51;;;;;;;;;;;;;;;21.67;36.05;95714.00;10427502;28;1922;-49
2022/01/03 00:33:52;;;;;;;;;;;;;;;21.67;35.95;95721.09;10441137;28;1893;-47
2022/01/03 00:38:52;;;;;;;;;;;;;;;21.67;35.95;95705.28;10432588;28;2426;-45
2022/01/03 00:43:53;;;;;;;;;;;;;;;21.67;35.73;95716.63;10439905;28;1870;-45
2022/01/03 00:48:53;;;;;;;;;;;;;;;21.67;35.45;95726.38;10442418;28;1922;-47
2022/01/03 00:53:54;;;;;;;;;;;;;;;21.68;35.63;95723.47;10449833;28;1904;-50
2022/01/03 00:59:09;;;;;;;;;;;;;;;21.68;35.71;95725.31;10437468;28;1862;-49
2022/01/03 01:04:10;;;;;;;;;;;;;;;21.69;35.68;95721.63;10446598;28;1910;-47
2022/01/03 01:09:12;;;;;;;;;;;;;;;21.67;35.56;95721.09;10446717;28;2029;-46
2022/01/03 01:14:12;;;;;;;;;;;;;;;21.68;35.68;95720.03;10442654;28;1838;-47
2022/01/03 01:19:13;;;;;;;;;;;;;;;21.69;35.61;95708.41;10452610;28;1864;-46
2022/01/03 01:24:14;;;;;;;;;;;;;;;21.67;35.38;95700.00;10424912;28;1884;-48
2022/01/03 01:29:14;;;;;;;;;;;;;;;21.66;35.27;95699.22;10438490;28;1906;-51
2022/01/03 01:34:22;;;;;;;;;;;;;;;21.68;35.59;95702.34;10448627;28;1829;-48
2022/01/03 01:39:23;;;;;;;;;;;;;;;21.70;35.32;95715.28;10444009;28;1832;-50
2022/01/03 01:44:23;;;;;;;;;;;;;;;21.66;34.99;95709.75;10446124;28;1834;-48
2022/01/03 01:49:25;;;;;;;;;;;;;;;21.66;34.99;95715.03;10438819;28;1946;-51
2022/01/03 01:54:36;;;;;;;;;;;;;;;21.67;34.69;95700.00;10443194;28;1754;-50
2022/01/03 01:59:37;;;;;;;;;;;;;;;21.67;35.04;95703.44;10442913;28;1854;-51
2022/01/03 02:05:01;;;;;;;;;;;;;;;21.67;35.22;95707.91;10445235;28;1790;-47
2022/01/03 02:10:01;;;;;;;;;;;;;;;21.66;34.81;95687.88;10451994;28;1925;-48
2022/01/03 02:15:02;;;;;;;;;;;;;;;21.67;35.03;95678.91;10441811;28;1822;-48
2022/01/03 02:20:06;;;;;;;;;;;;;;;21.65;34.95;95683.66;10452851;28;1794;-51
2022/01/03 02:25:07;;;;;;;;;;;;;;;21.65;34.93;95683.66;10448560;28;1794;-47
2022/01/03 02:30:08;;;;;;;;;;;;;;;21.65;34.34;95675.75;10431254;28;2325;-46
2022/01/03 02:35:10;;;;;;;;;;;;;;;21.65;34.58;95688.94;10439597;28;1952;-48
2022/01/03 02:40:11;;;;;;;;;;;;;;;21.63;34.46;95677.91;10452770;23;1965;-40
2022/01/03 02:45:16;;;;;;;;;;;;;;;21.63;34.51;95668.13;10360630;28;2140;-42
2022/01/03 02:50:17;;;;;;;;;;;;;;;21.63;34.53;95683.97;10359166;28;1914;-40
2022/01/03 02:55:18;;;;;;;;;;;;;;;21.64;34.83;95680.25;10364368;28;1836;-40
2022/01/03 03:00:19;;;;;;;;;;;;;;;21.64;34.66;95700.56;10357710;28;1853;-40
2022/01/03 03:05:20;;;;;;;;;;;;;;;21.64;34.74;95717.19;10355648;28;1851;-40
2022/01/03 03:10:20;;;;;;;;;;;;;;;21.63;34.47;95714.81;10356877;28;2047;-40
2022/01/03 03:15:21;;;;;;;;;;;;;;;21.61;33.54;95694.00;10359897;28;1868;-40
2022/01/03 03:20:22;;;;;;;;;;;;;;;21.64;34.50;95703.97;10359865;28;1897;-40
2022/01/03 03:25:24;;;;;;;;;;;;;;;21.64;34.48;95698.72;10363884;28;1871;-40
2022/01/03 03:30:28;;;;;;;;;;;;;;;21.64;34.48;95703.97;10360874;28;1957;-42
2022/01/03 03:35:29;;;;;;;;;;;;;;;21.62;34.42;95700.84;10366598;28;1425;-41
2022/01/03 03:40:29;;;;;;;;;;;;;;;21.62;34.33;95707.97;10370553;28;1257;-43
2022/01/03 03:45:31;;;;;;;;;;;;;;;21.61;34.30;95709.84;10364277;28;1398;-40
2022/01/03 03:50:31;;;;;;;;;;;;;;;21.61;34.38;95698.50;10354163;28;2324;-43
2022/01/03 03:55:34;;;;;;;;;;;;;;;21.64;34.43;95711.09;10363605;28;2278;-40
2022/01/03 04:00:35;;;;;;;;;;;;;;;21.62;34.32;95711.41;10358661;28;1998;-44
2022/01/03 04:05:35;;;;;;;;;;;;;;;21.62;34.57;95713.25;10359525;28;1898;-44
2022/01/03 04:10:35;;;;;;;;;;;;;;;21.63;34.52;95717.47;10361848;28;1937;-40
2022/01/03 04:15:36;;;;;;;;;;;;;;;21.64;34.42;95721.66;10364594;28;1895;-42
2022/01/03 04:20:36;;;;;;;;;;;;;;;21.63;34.50;95725.38;10364214;28;1852;-42
2022/01/03 04:25:37;;;;;;;;;;;;;;;21.60;34.03;95720.66;10361416;28;1840;-44
2022/01/03 04:30:37;;;;;;;;;;;;;;;21.61;34.69;95709.03;10358892;28;1895;-42
2022/01/03 04:35:38;;;;;;;;;;;;;;;21.64;34.51;95722.44;10362639;28;1837;-46
2022/01/03 04:40:38;;;;;;;;;;;;;;;21.61;34.33;95709.84;10360594;28;1819;-40
2022/01/03 04:45:39;;;;;;;;;;;;;;;21.62;34.38;95714.03;10353904;28;1816;-39
2022/01/03 04:50:40;;;;;;;;;;;;;;;21.62;33.75;95723.78;10364207;28;1891;-43
2022/01/03 04:55:40;;;;;;;;;;;;;;;21.61;34.08;95732.78;10364715;28;1824;-49
2022/01/03 05:00:41;;;;;;;;;;;;;;;21.62;34.32;95726.44;10362365;28;1940;-44
2022/01/03 05:05:41;;;;;;;;;;;;;;;21.62;34.01;95729.06;10355245;28;1818;-40
2022/01/03 05:10:41;;;;;;;;;;;;;;;21.60;34.36;95721.44;10368275;28;1910;-43
2022/01/03 05:15:42;;;;;;;;;;;;;;;21.61;34.43;95730.94;10362062;28;1850;-41
2022/01/03 05:20:42;;;;;;;;;;;;;;;21.61;34.23;95724.88;10360479;28;1950;-44
2022/01/03 05:25:42;;;;;;;;;;;;;;;21.65;34.44;95744.34;10363486;28;1785;-41
2022/01/03 05:30:43;;;;;;;;;;;;;;;21.65;34.59;95749.63;10352049;28;1910;-43
2022/01/03 05:35:43;;;;;;;;;;;;;;;21.67;34.49;95758.03;10362899;28;1796;-41
2022/01/03 05:40:44;;;;;;;;;;;;;;;21.69;34.30;95761.97;10362315;28;1799;-44
2022/01/03 05:45:45;;;;;;;;;;;;;;;21.70;34.30;95757.50;10362926;28;1839;-40
2022/01/03 05:50:45;;;;;;;;;;;;;;;21.72;34.69;95768.56;10367716;28;1977;-41
2022/01/03 05:55:46;;;;;;;;;;;;;;;21.71;34.48;95764.34;10367952;28;1899;-40
2022/01/03 06:00:47;;;;;;;;;;;;;;;21.71;34.74;95765.13;10360099;28;1825;-41
2022/01/03 06:06:31;;;;;;;;;;;;;;;21.72;34.81;95771.97;10366825;28;1764;-42
2022/01/03 06:11:14;;;;;;;;;;;;;;;21.73;35.07;95768.28;10363038;28;1981;-40
2022/01/03 06:16:14;;;;;;;;;;;;;;;21.74;34.96;95763.78;10359753;28;1939;-40
2022/01/03 06:21:15;;;;;;;;;;;;;;;21.74;35.02;95769.06;10362860;28;1856;-40
2022/01/03 06:26:15;;;;;;;;;;;;;;;21.71;34.20;95764.34;10359328;28;1843;-43
2022/01/03 06:31:15;;;;;;;;;;;;;;;21.70;34.92;95765.41;10365923;28;2011;-42
2022/01/03 06:36:16;;;;;;;;;;;;;;;21.67;35.25;95764.13;10354694;28;1895;-41
2022/01/03 06:41:16;;;;;;;;;;;;;;;21.65;34.99;95762.81;10373210;28;1855;-46
2022/01/03 06:46:17;;;;;;;;;;;;;;;21.65;34.97;95765.44;10348351;28;1844;-41
2022/01/03 06:51:17;;;;;;;;;;;;;;;21.62;35.06;95763.34;10356770;28;1976;-45
2022/01/03 06:56:17;;;;;;;;;;;;;;;21.63;35.27;95764.94;10357502;28;1850;-42
2022/01/03 07:01:18;;;;;;;;;;;;;;;21.61;35.30;95773.16;10361389;28;1787;-40
2022/01/03 07:06:18;;;;;;;;;;;;;;;21.64;35.31;95774.41;10352266;28;2215;-41
2022/01/03 07:11:19;;;;;;;;;;;;;;;21.62;35.63;95793.16;10354731;28;1906;-44
2022/01/03 07:21:38;;;;;;;;;;;;;;;21.63;35.66;95788.69;10354444;28;1825;-43
2022/01/03 07:26:59;;;;;;;;;;;;;;;21.61;35.72;95785.53;10359582;28;1838;-43
2022/01/03 07:32:00;;;;;;;;;;;;;;;21.59;35.83;95788.47;10355481;28;1914;-47
2022/01/03 07:37:01;;;;;;;;;;;;;;;21.59;35.52;95783.19;10361381;28;1833;-40
2022/01/03 07:42:13;;;;;;;;;;;;;;;21.62;35.59;95781.81;10360858;28;2054;-39
2022/01/03 07:47:13;;;;;;;;;;;;;;;21.60;35.66;95779.47;10357605;28;1839;-41
2022/01/03 07:52:13;;;;;;;;;;;;;;;21.60;35.41;95779.47;10368861;28;1915;-40
2022/01/03 07:57:14;;;;;;;;;;;;;;;21.59;35.72;95787.66;10368580;28;1770;-40
2022/01/03 08:02:14;;;;;;;;;;;;;;;21.59;35.46;95777.13;10357461;28;2208;-42
2022/01/03 08:07:15;;;;;;;;;;;;;;;21.61;35.36;95772.34;10367631;28;1773;-42
2022/01/03 08:12:16;;;;;;;;;;;;;;;21.61;35.57;95775.78;10363445;28;1914;-39
2022/01/03 08:17:17;;;;;;;;;;;;;;;21.62;35.34;95781.81;10368269;28;2048;-41
2022/01/03 08:22:18;;;;;;;;;;;;;;;21.60;35.60;95773.41;10364283;28;1812;-42
2022/01/03 08:27:18;;;;;;;;;;;;;;;21.62;35.31;95785.25;10354224;28;1852;-44
2022/01/03 08:32:19;;;;;;;;;;;;;;;21.63;35.34;95788.69;10361991;28;1910;-43
2022/01/03 08:37:19;;;;;;;;;;;;;;;21.62;35.37;95773.91;10361707;28;2133;-40
2022/01/03 08:42:20;;;;;;;;;;;;;;;21.64;35.05;95779.69;10395779;23;1981;-63
2022/01/03 08:47:21;;;;;;;;;;;;;;;21.60;35.35;95776.84;10404592;28;1898;-62
2022/01/03 08:52:21;;;;;;;;;;;;;;;21.59;35.58;95775.28;10408397;28;1923;-61
2022/01/03 08:57:22;;;;;;;;;;;;;;;21.59;35.61;95772.63;10411171;28;1916;-62
2022/01/03 09:02:22;;;;;;;;;;;;;;;21.57;35.45;95763.44;10404098;28;1826;-63
2022/01/03 09:07:23;;;;;;;;;;;;;;;21.59;35.29;95767.38;10410931;28;1959;-62
2022/01/03 09:12:23;;;;;;;;;;;;;;;21.58;35.54;95781.59;10408388;28;1914;-63
2022/01/03 09:17:24;;;;;;;;;;;;;;;21.57;35.45;95763.44;10409955;28;1821;-62
2022/01/03 09:22:31;;;;;;;;;;;;;;;21.56;35.20;95767.91;10417837;28;1756;-63
2022/01/03 09:32:51;;;;;;;;;;;;;;;21.54;35.27;95762.13;10424942;28;1914;-63
2022/01/03 09:37:51;;;;;;;;;;;;;;;21.57;35.25;95763.44;10411142;28;1952;-63
2022/01/03 09:42:58;;;;;;;;;;;;;;;21.56;35.02;95756.56;10418234;28;1916;-63
2022/01/03 09:47:58;;;;;;;;;;;;;;;21.52;34.83;95760.81;10408552;28;1824;-63
2022/01/03 09:53:00;;;;;;;;;;;;;;;21.56;35.25;95767.91;10384143;28;1930;-62
2022/01/03 09:58:00;;;;;;;;;;;;;;;21.54;35.13;95761.34;10403376;28;1813;-63
2022/01/03 10:03:00;;;;;;;;;;;;;;;21.52;35.06;95756.34;10407408;28;1872;-64
2022/01/03 10:08:01;;;;;;;;;;;;;;;21.53;35.18;95743.94;10399474;28;1788;-63
2022/01/03 10:13:02;;;;;;;;;;;;;;;21.51;35.29;95749.50;10408969;28;1906;-63
2022/01/03 10:18:02;;;;;;;;;;;;;;;21.50;34.22;95723.41;10399489;28;1857;-63
2022/01/03 10:23:09;;;;;;;;;;;;;;;21.49;34.67;95741.09;10402292;28;1890;-63
2022/01/03 10:28:10;;;;;;;;;;;;;;;21.52;34.55;95726.53;10402635;28;1996;-62
2022/01/03 10:33:12;;;;;;;;;;;;;;;21.54;34.79;95727.03;10393405;28;1947;-64
2022/01/03 10:38:31;;;;;;;;;;;;;;;21.56;35.11;95728.34;10401950;28;2020;-63
2022/01/03 10:43:32;;;;;;;;;;;;;;;21.59;35.37;95724.38;10407300;28;2116;-63
2022/01/03 10:48:33;;;;;;;;;;;;;;;21.57;35.04;95727.28;10382140;28;1967;-63
2022/01/03 10:53:34;;;;;;;;;;;;;;;21.56;34.83;95724.91;10415024;28;1899;-63
2022/01/03 10:58:34;;;;;;;;;;;;;;;21.61;35.36;95716.97;10383211;28;1885;-62
2022/01/03 11:03:42;;;;;;;;;;;;;;;21.62;35.36;95716.66;10407627;28;1904;-63
2022/01/03 11:14:01;;;;;;;;;;;;;;;21.62;35.04;95698.19;10404050;28;1846;-63
2022/01/03 11:19:02;;;;;;;;;;;;;;;21.63;35.36;95691.09;10411478;28;1912;-63
2022/01/03 11:24:09;;;;;;;;;;;;;;;21.63;35.56;95688.44;10406544;28;1944;-63
2022/01/03 11:29:09;;;;;;;;;;;;;;;21.64;35.22;95685.53;10377509;28;1909;-59
2022/01/03 11:34:12;;;;;;;;;;;;;;;21.70;35.66;95668.56;10382315;28;1859;-58
2022/01/03 11:39:12;;;;;;;;;;;;;;;21.68;35.59;95660.16;10403697;28;1778;-57
2022/01/03 11:44:15;;;;;;;;;;;;;;;21.67;35.89;95660.44;10391762;28;2030;-56
2022/01/03 11:49:16;;;;;;;;;;;;;;;21.66;35.62;95656.22;10400211;28;1965;-56
2022/01/03 11:54:17;;;;;;;;;;;;;;;21.67;35.71;95649.88;10393406;28;1905;-58
2022/01/03 12:04:17;;;;;;;;;;;;;;;21.63;35.44;95640.97;10403366;28;1798;-60
2022/01/03 12:09:18;;;;;;;;;;;;;;;21.62;35.57;95639.38;10400272;28;1910;-62
2022/01/03 12:14:20;;;;;;;;;;;;;;;21.59;35.59;95634.69;10387713;28;1885;-60
2022/01/03 12:19:29;;;;;;;;;;;;;;;21.58;35.54;95617.28;10403096;28;1813;-59
2022/01/03 12:24:29;;;;;;;;;;;;;;;21.58;35.69;95615.44;10400374;28;1841;-63
2022/01/03 12:29:30;;;;;;;;;;;;;;;21.57;35.87;95621.00;10398535;28;1898;-63
2022/01/03 12:34:30;;;;;;;;;;;;;;;21.55;35.55;95623.91;10389323;28;2197;-62
2022/01/03 12:39:31;;;;;;;;;;;;;;;21.58;35.38;95612.00;10401615;28;2012;-62
2022/01/03 12:44:44;;;;;;;;;;;;;;;21.58;35.45;95620.69;10411782;28;1820;-63
2022/01/03 12:49:44;;;;;;;;;;;;;;;21.56;35.37;95599.09;10398628;28;1973;-61
2022/01/03 12:54:45;;;;;;;;;;;;;;;21.55;35.52;95608.09;10406164;28;1797;-60
2022/01/03 12:59:46;;;;;;;;;;;;;;;21.56;35.48;95608.84;10399099;28;1863;-62
2022/01/03 13:04:47;;;;;;;;;;;;;;;21.58;35.34;95606.72;10403316;28;1956;-62
2022/01/03 13:09:47;;;;;;;;;;;;;;;21.56;35.09;95604.38;10406413;28;1934;-62
2022/01/03 13:14:47;;;;;;;;;;;;;;;21.58;35.45;95604.09;10408411;28;1807;-62
2022/01/03 13:19:48;;;;;;;;;;;;;;;21.56;35.39;95608.84;10408347;28;1860;-62
2022/01/03 13:24:49;;;;;;;;;;;;;;;21.56;35.47;95598.31;10390914;28;1841;-62
2022/01/03 13:29:53;;;;;;;;;;;;;;;21.56;35.42;95582.47;10405135;28;1894;-63
2022/01/03 13:34:54;;;;;;;;;;;;;;;21.56;35.25;95578.00;10402405;28;2126;-61
2022/01/03 13:39:55;;;;;;;;;;;;;;;21.57;34.98;95584.06;10402141;28;1808;-62
2022/01/03 13:49:56;;;;;;;;;;;;;;;21.56;35.31;95566.66;10402929;28;1994;-62
2022/01/03 13:55:01;;;;;;;;;;;;;;;21.57;35.11;95553.22;10381396;28;1823;-62
2022/01/03 14:00:03;;;;;;;;;;;;;;;21.57;35.48;95560.34;10402482;28;1846;-61
2022/01/03 14:05:04;;;;;;;;;;;;;;;21.55;35.04;95560.63;10401633;28;1791;-61
2022/01/03 14:10:04;;;;;;;;;;;;;;;21.55;35.04;95562.47;10413752;28;1993;-59
2022/01/03 14:15:05;;;;;;;;;;;;;;;21.54;35.21;95564.31;10404634;28;1857;-62
2022/01/03 14:20:06;;;;;;;;;;;;;;;21.54;35.13;95550.34;10396250;28;1961;-61
2022/01/03 14:25:08;;;;;;;;;;;;;;;21.52;34.98;95539.28;10410275;28;1824;-60
2022/01/03 14:30:12;;;;;;;;;;;;;;;21.53;35.04;95540.88;10396108;28;1903;-62
2022/01/03 14:35:12;;;;;;;;;;;;;;;21.54;34.90;95537.16;10400320;28;1913;-62
2022/01/03 14:40:13;;;;;;;;;;;;;;;21.53;34.94;95530.31;10406735;28;1747;-60
2022/01/03 14:45:14;;;;;;;;;;;;;;;21.52;35.34;95529.53;10398759;28;1818;-61
2022/01/03 14:50:19;;;;;;;;;;;;;;;21.53;35.12;95514.50;10398129;28;1973;-60
2022/01/03 14:55:26;;;;;;;;;;;;;;;21.54;35.00;95514.19;10385429;28;2122;-61
2022/01/03 15:00:27;;;;;;;;;;;;;;;21.52;34.62;95507.63;10390415;28;2030;-62
2022/01/03 15:05:27;;;;;;;;;;;;;;;21.54;34.69;95502.84;10417278;28;1736;-63
2022/01/03 15:10:27;;;;;;;;;;;;;;;21.53;34.28;95498.66;10405871;28;1906;-62
2022/01/03 15:15:28;;;;;;;;;;;;;;;21.53;34.69;95496.81;10400779;28;1755;-61
2022/01/03 15:20:29;;;;;;;;;;;;;;;21.53;34.48;95488.13;10395422;28;1897;-60
2022/01/03 15:25:29;;;;;;;;;;;;;;;21.51;34.69;95479.72;10387306;28;1755;-60
2022/01/03 15:30:39;;;;;;;;;;;;;;;21.52;34.66;95460.16;10419442;23;1985;-39
2022/01/03 15:35:40;;;;;;;;;;;;;;;21.54;34.74;95461.44;10391762;28;2352;-43
2022/01/03 15:40:41;;;;;;;;;;;;;;;21.53;34.49;95457.25;10398073;28;1877;-39
2022/01/03 15:45:41;;;;;;;;;;;;;;;21.54;34.60;95458.03;10390189;28;2286;-43
2022/01/03 15:50:42;;;;;;;;;;;;;;;21.58;34.88;95459.03;10391761;28;1958;-39
2022/01/03 15:55:42;;;;;;;;;;;;;;;21.57;34.87;95442.44;10393850;28;1885;-39
2022/01/03 16:00:43;;;;;;;;;;;;;;;21.56;34.73;95425.03;10392356;28;1877;-46
2022/01/03 16:05:43;;;;;;;;;;;;;;;21.57;34.89;95431.09;10392443;28;1779;-42
2022/01/03 16:10:44;;;;;;;;;;;;;;;21.58;34.80;95422.88;10391286;28;1906;-43
2022/01/03 16:15:44;;;;;;;;;;;;;;;21.57;34.73;95431.09;10398953;28;1786;-39
2022/01/03 16:20:45;;;;;;;;;;;;;;;21.58;34.83;95424.72;10400223;28;1799;-38
2022/01/03 16:25:45;;;;;;;;;;;;;;;21.60;34.88;95423.38;10400506;28;1854;-39
2022/01/03 16:30:46;;;;;;;;;;;;;;;21.60;35.10;95423.38;10393039;28;1898;-44
2022/01/03 16:35:46;;;;;;;;;;;;;;;21.63;35.12;95411.47;10405963;28;1851;-41
2022/01/03 16:40:47;;;;;;;;;;;;;;;21.61;35.44;95401.22;10405761;28;2039;-41
2022/01/03 16:45:47;;;;;;;;;;;;;;;21.62;35.11;95391.44;10404202;28;1916;-40
2022/01/03 16:50:48;;;;;;;;;;;;;;;21.61;35.13;95382.75;10398254;28;2003;-38
2022/01/03 16:55:48;;;;;;;;;;;;;;;21.67;35.06;95384.25;10390368;28;1840;-38
2022/01/03 17:00:49;;;;;;;;;;;;;;;21.66;34.69;95381.88;10391698;28;1835;-41
2022/01/03 17:05:49;;;;;;;;;;;;;;;21.72;35.31;95375.47;10397396;28;1845;-41
2022/01/03 17:10:50;;;;;;;;;;;;;;;20.85;30.93;95369.09;10400500;28;1985;-39
2022/01/03 17:15:50;;;;;;;;;;;;;;;20.25;30.90;95355.63;10407551;28;1742;-40
2022/01/03 17:20:51;;;;;;;;;;;;;;;19.90;30.91;95363.84;10396146;28;1861;-38
2022/01/03 17:25:52;;;;;;;;;;;;;;;20.18;31.78;95343.81;10407783;28;1897;-49
2022/01/03 17:30:52;;;;;;;;;;;;;;;20.60;32.35;95330.72;10413118;28;1922;-53
2022/01/03 17:35:52;;;;;;;;;;;;;;;20.92;33.00;95330.78;10403935;28;1851;-39
2022/01/03 17:40:53;;;;;;;;;;;;;;;21.12;32.54;95339.50;10397390;28;1859;-39
2022/01/03 17:45:53;;;;;;;;;;;;;;;21.31;33.54;95327.84;10403843;28;1902;-39
2022/01/03 17:50:54;;;;;;;;;;;;;;;21.49;33.03;95331.53;10402606;28;1914;-37
2022/01/03 17:55:55;;;;;;;;;;;;;;;21.62;33.05;95331.56;10403946;28;1872;-38
2022/01/03 18:00:55;;;;;;;;;;;;;;;21.79;33.71;95323.88;10391125;28;1837;-42
2022/01/03 18:05:56;;;;;;;;;;;;;;;21.86;33.57;95312.97;10398562;28;1816;-38
2022/01/03 18:10:56;;;;;;;;;;;;;;;21.92;33.79;95295.19;10402618;28;1918;-41
2022/01/03 18:15:56;;;;;;;;;;;;;;;21.99;34.28;95285.81;10416370;28;1872;-43
2022/01/03 18:20:57;;;;;;;;;;;;;;;22.01;32.87;95283.66;10402052;28;2128;-44
2022/01/03 18:25:58;;;;;;;;;;;;;;;22.00;32.26;95276.03;10403425;28;1322;-43
2022/01/03 18:30:58;;;;;;;;;;;;;;;22.01;32.50;95278.38;10409540;28;2005;-40
2022/01/03 18:35:58;;;;;;;;;;;;;;;22.03;32.85;95270.19;10399706;28;1344;-41
2022/01/03 18:40:59;;;;;;;;;;;;;;;22.06;32.34;95286.19;10400158;28;2441;-43
2022/01/03 18:46:01;;;;;;;;;;;;;;;22.07;32.64;95273.78;10411202;28;1424;-39
2022/01/03 18:51:01;;;;;;;;;;;;;;;22.09;32.16;95280.31;10397033;28;1914;-40
2022/01/03 18:56:02;;;;;;;;;;;;;;;21.71;30.69;95269.16;10395322;28;1223;-42
2022/01/03 19:01:03;;;;;;;;;;;;;;;20.90;30.54;95269.69;10402027;28;1480;-40
2022/01/03 19:06:03;;;;;;;;;;;;;;;20.36;31.07;95260.75;10411128;28;2195;-38
2022/01/03 19:11:04;;;;;;;;;;;;;;;20.79;32.08;95267.50;10401576;28;1980;-39
2022/01/03 19:16:04;;;;;;;;;;;;;;;21.19;32.89;95255.56;10410764;28;1400;-40
2022/01/03 19:21:04;;;;;;;;;;;;;;;21.50;33.72;95244.22;10402435;28;1384;-38
2022/01/03 19:26:05;;;;;;;;;;;;;;;21.72;34.17;95240.94;10400630;28;1469;-39
2022/01/03 19:31:05;;;;;;;;;;;;;;;21.83;34.05;95244.94;10398462;28;1975;-39
2022/01/03 19:41:25;;;;;;;;;;;;;;;21.93;33.49;95222.88;10398831;28;1900;-42
2022/01/03 19:46:25;;;;;;;;;;;;;;;21.98;33.39;95209.56;10397421;28;1859;-41
2022/01/03 19:51:26;;;;;;;;;;;;;;;22.06;33.45;95214.94;10382525;28;1966;-43
2022/01/03 19:56:26;;;;;;;;;;;;;;;22.07;33.91;95203.28;10367200;28;1884;-40
2022/01/03 20:01:27;;;;;;;;;;;;;;;22.14;34.25;95197.63;10383792;28;1828;-39
2022/01/03 20:06:28;;;;;;;;;;;;;;;22.14;33.85;95174.66;10394194;28;1811;-43
2022/01/03 20:11:30;;;;;;;;;;;;;;;22.14;33.80;95174.66;10396050;28;1926;-46
2022/01/03 20:16:30;;;;;;;;;;;;;;;22.10;34.35;95172.88;10402397;28;1972;-39
2022/01/03 20:21:32;;;;;;;;;;;;;;;22.12;34.63;95168.09;10408464;28;2171;-44
2022/01/03 20:26:32;;;;;;;;;;;;;;;22.07;34.59;95158.41;10399573;28;1926;-39
2022/01/03 20:31:34;;;;;;;;;;;;;;;22.06;34.58;95143.69;10399827;28;1931;-41
2022/01/03 20:36:34;;;;;;;;;;;;;;;22.04;34.80;95140.56;10398119;28;1816;-42
2022/01/03 20:41:34;;;;;;;;;;;;;;;21.99;35.06;95140.66;10403648;28;1815;-42
2022/01/03 20:46:35;;;;;;;;;;;;;;;21.96;34.86;95135.97;10394089;28;1815;-41
2022/01/03 20:51:35;;;;;;;;;;;;;;;21.97;35.19;95134.13;10416587;28;1918;-40
2022/01/03 20:56:36;;;;;;;;;;;;;;;21.95;35.39;95126.50;10416874;28;2141;-41
2022/01/03 21:01:36;;;;;;;;;;;;;;;21.95;35.30;95126.50;10388345;28;1864;-38
2022/01/03 21:06:37;;;;;;;;;;;;;;;21.94;35.27;95127.59;10398519;28;1810;-39
2022/01/03 21:11:38;;;;;;;;;;;;;;;21.99;35.00;95124.81;10397224;28;1942;-43
2022/01/03 21:16:38;;;;;;;;;;;;;;;22.00;35.77;95123.75;10391642;28;1810;-38
2022/01/03 21:21:39;;;;;;;;;;;;;;;21.98;35.77;95122.47;10382634;28;2282;-41
2022/01/03 21:26:39;;;;;;;;;;;;;;;21.97;35.51;95107.75;10392612;28;1850;-41
2022/01/03 21:31:40;;;;;;;;;;;;;;;21.97;35.53;95097.19;10408544;28;1977;-39
2022/01/03 21:36:40;;;;;;;;;;;;;;;21.96;35.50;95098.25;10406401;28;1834;-44
2022/01/03 21:41:40;;;;;;;;;;;;;;;21.96;35.47;95101.69;10411059;28;1806;-40
2022/01/03 21:46:41;;;;;;;;;;;;;;;21.98;35.50;95086.31;10392048;28;2085;-46
2022/01/03 21:51:41;;;;;;;;;;;;;;;21.99;35.65;95079.94;10398922;28;1906;-40
2022/01/03 21:56:42;;;;;;;;;;;;;;;21.99;35.65;95079.94;10397209;28;1891;-45
2022/01/03 22:01:43;;;;;;;;;;;;;;;21.99;35.52;95090.50;10396282;28;2132;-40
2022/01/03 22:06:43;;;;;;;;;;;;;;;21.99;34.95;95079.94;10401654;28;1855;-46
2022/01/03 22:11:43;;;;;;;;;;;;;;;21.99;35.26;95063.38;10398800;28;1914;-40
2022/01/03 22:16:44;;;;;;;;;;;;;;;22.00;35.55;95070.19;10373384;23;3601;-63
2022/01/03 22:21:44;;;;;;;;;;;;;;;21.99;35.51;95058.84;10361351;28;1788;-63
2022/01/03 22:26:44;;;;;;;;;;;;;;;21.99;35.40;95043.00;10362083;28;1816;-63
2022/01/03 22:31:45;;;;;;;;;;;;;;;22.00;34.92;95031.38;10359345;28;2245;-62
2022/01/03 22:36:46;;;;;;;;;;;;;;;22.01;35.34;95034.81;10362139;28;1883;-64
2022/01/03 22:41:46;;;;;;;;;;;;;;;22.01;35.17;95030.28;10376746;28;1913;-63
2022/01/03 22:46:47;;;;;;;;;;;;;;;22.01;34.87;95014.47;10362812;28;1890;-63
2022/01/03 22:51:47;;;;;;;;;;;;;;;22.00;34.91;94997.09;10361474;28;1969;-64
2022/01/03 22:56:47;;;;;;;;;;;;;;;22.01;35.18;94989.94;10345448;28;1891;-63
2022/01/03 23:01:48;;;;;;;;;;;;;;;22.01;34.74;94985.44;10360834;28;1836;-62
2022/01/03 23:06:48;;;;;;;;;;;;;;;22.00;34.98;94973.34;10362116;28;1860;-62
2022/01/03 23:11:49;;;;;;;;;;;;;;;22.01;35.10;94966.97;10364263;28;1906;-63
2022/01/03 23:16:49;;;;;;;;;;;;;;;22.01;34.82;94948.47;10358425;28;1860;-62
2022/01/03 23:21:50;;;;;;;;;;;;;;;22.02;35.13;94942.13;10360535;28;1815;-62
2022/01/03 23:26:50;;;;;;;;;;;;;;;22.01;35.01;94930.00;10360405;28;1808;-62
2022/01/03 23:31:50;;;;;;;;;;;;;;;22.00;34.85;94923.19;10363078;28;1890;-63
2022/01/03 23:36:51;;;;;;;;;;;;;;;22.01;35.05;94908.91;10360550;28;1931;-63
2022/01/03 23:41:51;;;;;;;;;;;;;;;22.00;34.60;94907.34;10366292;28;1972;-62
2022/01/03 23:46:52;;;;;;;;;;;;;;;22.01;34.53;94892.31;10361801;28;1873;-64
2022/01/03 23:51:52;;;;;;;;;;;;;;;22.01;34.67;94897.59;10365010;28;2144;-63
2022/01/03 23:56:53;;;;;;;;;;;;;;;22.01;34.55;94884.38;10357557;28;2193;-64
